Date,TemperatureHighF,TemperatureAvgF,TemperatureLowF,DewpointHighF,DewpointAvgF,DewpointLowF,HumidityHigh,HumidityAvg,HumidityLow,PressureMaxIn,PressureMinIn,WindSpeedMaxMPH,WindSpeedAvgMPH,GustSpeedMaxMPH,PrecipitationSumIn
2013-4-1,74.0,64.7,57.6,45.8,42.0,38.3,58,45,28,30.00,29.89,56,30,66,0.00
2013-4-2,84.1,70.5,57.9,45.8,40.1,30.0,59,36,16,29.98,29.83,48,19,49,0.00
2013-4-3,89.7,77.9,66.2,45.3,34.9,29.2,37,22,13,29.99,29.85,25,7,28,0.00
2013-4-4,88.3,77.4,69.5,43.6,38.1,27.1,36,25,12,29.93,29.81,50,18,61,0.00
2013-4-5,81.3,71.0,64.3,49.5,45.8,37.7,55,41,23,29.92,29.80,59,29,66,0.00
2013-4-6,84.3,70.6,60.2,50.6,47.1,39.2,64,45,23,29.92,29.77,53,23,55,0.00
2013-4-7,85.6,72.2,60.8,50.5,45.7,36.0,65,42,19,29.84,29.62,49,16,55,0.00
2013-4-8,68.8,62.6,57.3,49.3,41.1,34.8,63,45,35,29.67,29.47,69,34,80,0.00
2013-4-9,76.5,66.3,54.0,35.0,20.7,-1.2,47,22,5,29.93,29.66,52,23,63,0.00
2013-4-10,84.8,72.9,62.5,25.5,14.9,-5.9,21,12,3,30.06,29.86,58,13,58,0.00
2013-4-11,86.3,74.5,64.3,42.4,29.7,20.2,37,20,13,29.91,29.61,38,10,46,0.00
2013-4-12,86.7,74.8,61.3,43.8,36.9,27.0,47,28,14,29.75,29.64,28,5,31,0.00
2013-4-13,88.9,77.0,65.5,49.0,38.8,30.4,42,26,14,29.75,29.59,56,15,75,0.00
2013-4-14,71.3,63.9,58.6,47.5,44.6,40.5,65,50,39,29.68,29.56,67,34,78,0.00
2013-4-15,70.8,62.1,55.5,46.3,44.2,40.8,69,53,38,29.72,29.61,68,37,88,0.00
2013-4-16,68.8,59.2,51.7,41.7,35.8,28.7,57,43,27,29.88,29.67,70,30,82,0.00
2013-4-17,72.8,61.5,52.7,28.6,15.9,1.5,38,20,6,30.10,29.88,43,17,54,0.00
2013-4-18,76.2,66.3,55.6,13.5,5.6,-2.5,16,10,5,30.24,30.08,32,7,38,0.00
2013-4-19,84.8,72.3,61.1,15.5,7.1,0.6,11,8,6,30.15,29.90,21,6,25,0.00
2013-4-20,90.2,78.4,64.1,28.5,22.3,14.0,17,13,9,29.91,29.78,24,5,30,0.00
2013-4-21,90.9,81.8,70.8,37.2,29.4,23.2,22,15,9,29.91,29.79,27,7,32,0.00
2013-4-22,91.6,79.1,68.6,42.7,36.6,30.4,35,23,12,29.84,29.65,52,17,57,0.00
2013-4-23,88.7,77.8,60.6,46.0,24.8,8.5,58,19,6,29.86,29.67,43,13,53,0.00
2013-4-24,86.3,73.8,61.5,49.9,28.6,14.7,59,23,7,29.83,29.69,48,13,56,0.00
2013-4-25,77.8,67.3,58.0,47.0,45.1,43.6,62,46,30,29.95,29.74,70,30,71,0.00
2013-4-26,88.2,75.0,62.0,47.5,42.8,32.6,55,34,14,30.07,29.95,36,11,39,0.00
2013-4-27,99.1,86.0,70.3,44.0,23.8,2.5,34,13,3,30.01,29.82,34,10,56,0.00
2013-4-28,101.3,89.1,78.0,33.6,23.4,11.1,15,10,4,29.84,29.65,47,14,56,0.00
2013-4-29,101.1,87.4,72.8,48.7,34.5,20.4,32,17,6,29.69,29.54,50,21,56,0.00
2013-4-30,91.7,79.5,64.2,51.3,41.6,30.9,62,28,14,29.65,29.56,57,22,60,0.00